Time;durP1;ratioP1;P1;durP2;ratioP2;P2;SDS_P1;SDS_P2;PMS_P1;PMS_P2;Temp;Humidity;BMP_temperature;BMP_pressure;BME280_temperature;BME280_humidity;BME280_pressure;Samples;Min_cycle;Max_cycle;Signal;HPM_P1;HPM_P2
2021/09/13 00:02:13;;;;;;;37.90;19.58;;;29.00;91.30;;;;;;5044169;28;20029;-57
2021/09/13 00:04:40;;;;;;;36.22;21.10;;;29.00;91.30;;;;;;5043897;28;20036;-47
2021/09/13 00:07:07;;;;;;;39.10;25.77;;;29.00;91.30;;;;;;5044161;28;20045;-48
2021/09/13 00:09:34;;;;;;;62.38;38.60;;;29.00;91.20;;;;;;5043711;28;20021;-53
2021/09/13 00:12:01;;;;;;;62.17;40.28;;;28.90;91.00;;;;;;5042903;28;20025;-52
2021/09/13 00:14:27;;;;;;;51.00;30.45;;;29.00;91.00;;;;;;5046395;28;20369;-55
2021/09/13 00:16:54;;;;;;;41.70;25.90;;;29.00;90.90;;;;;;5048161;28;20048;-56
2021/09/13 00:19:23;;;;;;;37.90;22.08;;;28.90;90.80;;;;;;5046469;28;20289;-51
2021/09/13 00:21:49;;;;;;;28.25;17.27;;;29.00;90.70;;;;;;5047282;28;20022;-54
2021/09/13 00:24:16;;;;;;;26.23;16.88;;;28.90;90.60;;;;;;5047902;28;20025;-52
2021/09/13 00:26:43;;;;;;;27.77;14.63;;;29.00;90.70;;;;;;5048161;28;20052;-54
2021/09/13 00:29:10;;;;;;;25.70;14.07;;;28.90;90.80;;;;;;5047748;28;20017;-51
2021/09/13 00:31:37;;;;;;;23.17;13.93;;;28.90;90.80;;;;;;5047867;28;20040;-52
2021/09/13 00:34:04;;;;;;;25.77;15.50;;;28.90;90.70;;;;;;5047445;28;20018;-49
2021/09/13 00:36:31;;;;;;;34.58;20.23;;;28.90;90.90;;;;;;5047654;28;20029;-51
2021/09/13 00:38:58;;;;;;;30.60;18.27;;;28.90;90.90;;;;;;5047668;28;20017;-55
2021/09/13 00:41:25;;;;;;;26.92;15.27;;;28.90;90.90;;;;;;5047553;28;20201;-51
2021/09/13 00:43:52;;;;;;;28.33;15.85;;;28.80;90.70;;;;;;5047730;28;20068;-51
2021/09/13 00:46:19;;;;;;;31.48;15.48;;;28.90;90.80;;;;;;5047454;28;20025;-51
2021/09/13 00:48:46;;;;;;;29.55;18.35;;;28.80;90.70;;;;;;5047542;28;20025;-53
2021/09/13 00:51:13;;;;;;;33.08;17.80;;;28.80;90.60;;;;;;5047456;28;20080;-51
2021/09/13 00:53:40;;;;;;;28.38;17.40;;;28.80;90.60;;;;;;5047082;28;20021;-50
2021/09/13 00:56:08;;;;;;;30.92;16.35;;;28.80;90.50;;;;;;5047363;28;20025;-46
2021/09/13 00:58:36;;;;;;;26.13;13.98;;;28.80;90.40;;;;;;5047261;28;20096;-50
2021/09/13 01:01:04;;;;;;;23.40;12.43;;;28.80;90.40;;;;;;5047052;28;20026;-49
2021/09/13 01:03:33;;;;;;;21.55;10.15;;;28.80;90.30;;;;;;5047109;28;20021;-49
2021/09/13 01:06:00;;;;;;;22.13;9.45;;;28.80;90.10;;;;;;5029329;28;20071;-48
2021/09/13 01:08:27;;;;;;;25.58;7.50;;;28.80;90.10;;;;;;5046619;28;20281;-50
2021/09/13 01:10:56;;;;;;;21.08;6.75;;;28.70;90.10;;;;;;5047055;28;20334;-51
2021/09/13 01:13:23;;;;;;;20.08;7.18;;;28.60;90.20;;;;;;5046768;28;20033;-53
2021/09/13 01:15:50;;;;;;;17.10;6.53;;;28.60;90.20;;;;;;5046777;28;20033;-53
2021/09/13 01:18:17;;;;;;;20.00;6.93;;;28.50;90.30;;;;;;5046887;28;20079;-56
2021/09/13 01:20:45;;;;;;;17.83;6.53;;;28.40;90.40;;;;;;5046816;28;20038;-50
2021/09/13 01:23:28;;;;;;;18.17;5.68;;;28.30;90.30;;;;;;5046610;28;20029;-55
2021/09/13 01:25:55;;;;;;;14.27;5.05;;;28.30;90.40;;;;;;5046841;28;20205;-46
2021/09/13 01:28:22;;;;;;;16.17;4.50;;;28.30;90.60;;;;;;5046448;28;20079;-46
2021/09/13 01:30:50;;;;;;;13.38;4.60;;;28.30;90.50;;;;;;5046584;28;20087;-45
2021/09/13 01:33:17;;;;;;;20.30;5.13;;;28.20;90.60;;;;;;5046437;28;20217;-46
2021/09/13 01:35:44;;;;;;;15.35;4.07;;;28.30;90.30;;;;;;5046270;28;20037;-46
2021/09/13 01:38:11;;;;;;;12.10;4.18;;;28.30;90.30;;;;;;5046372;28;20017;-49
2021/09/13 01:40:38;;;;;;;13.05;5.03;;;28.20;90.20;;;;;;5046338;28;20325;-47
2021/09/13 01:43:05;;;;;;;15.05;4.88;;;28.30;90.20;;;;;;5046204;28;20076;-53
2021/09/13 01:45:32;;;;;;;13.70;4.57;;;28.20;90.10;;;;;;5046081;28;20018;-47
2021/09/13 01:47:59;;;;;;;12.55;4.03;;;28.20;89.90;;;;;;5046258;28;20025;-48
2021/09/13 01:50:26;;;;;;;14.60;4.13;;;28.20;89.70;;;;;;5044930;28;20025;-45
2021/09/13 01:52:52;;;;;;;10.40;3.08;;;28.20;89.40;;;;;;5046219;28;20053;-53
2021/09/13 01:55:19;;;;;;;14.27;3.80;;;28.10;89.70;;;;;;5046105;28;20020;-52
2021/09/13 01:57:46;;;;;;;16.30;3.97;;;28.10;89.80;;;;;;5046388;28;20029;-48
2021/09/13 02:00:14;;;;;;;12.38;3.75;;;28.10;89.70;;;;;;5046133;28;20021;-51
2021/09/13 02:02:41;;;;;;;13.77;3.42;;;28.10;89.50;;;;;;5046258;28;20065;-50
2021/09/13 02:05:08;;;;;;;13.18;3.05;;;28.10;89.20;;;;;;5045661;28;20073;-50
2021/09/13 02:07:36;;;;;;;13.68;3.38;;;28.10;89.30;;;;;;5045798;28;20335;-48
2021/09/13 02:10:05;;;;;;;15.57;3.10;;;28.10;89.60;;;;;;5045643;28;20242;-49
2021/09/13 02:12:32;;;;;;;14.13;3.08;;;28.10;89.50;;;;;;5045808;28;20037;-48
2021/09/13 02:14:59;;;;;;;13.82;3.42;;;28.10;89.60;;;;;;5045792;28;20047;-49
2021/09/13 02:17:26;;;;;;;12.18;3.40;;;28.00;89.50;;;;;;5045960;28;20033;-44
2021/09/13 02:19:53;;;;;;;14.35;4.22;;;28.00;89.60;;;;;;5045375;28;20021;-52
2021/09/13 02:22:19;;;;;;;9.10;3.38;;;28.10;89.40;;;;;;5045507;28;20025;-45
2021/09/13 02:24:46;;;;;;;13.73;3.38;;;28.00;89.40;;;;;;5045437;28;20014;-46
2021/09/13 02:27:13;;;;;;;11.93;3.58;;;28.00;89.60;;;;;;5045673;28;20029;-49
2021/09/13 02:29:40;;;;;;;12.35;3.30;;;28.00;89.50;;;;;;5045353;28;20021;-48
2021/09/13 02:32:08;;;;;;;11.40;3.50;;;28.00;89.30;;;;;;5045538;28;20025;-46
2021/09/13 02:34:34;;;;;;;10.63;3.20;;;27.90;89.60;;;;;;5045087;28;20210;-49
2021/09/13 02:37:01;;;;;;;12.88;3.28;;;28.00;89.50;;;;;;5045044;28;20042;-46
2021/09/13 02:39:28;;;;;;;13.75;3.40;;;28.00;89.40;;;;;;5045201;28;20014;-53
2021/09/13 02:41:56;;;;;;;12.02;3.58;;;28.00;89.20;;;;;;5043596;28;20309;-49
2021/09/13 02:44:25;;;;;;;16.20;3.80;;;28.00;89.10;;;;;;5045017;28;20033;-47
2021/09/13 02:46:52;;;;;;;9.20;4.55;;;28.10;89.00;;;;;;5045235;28;20045;-54
2021/09/13 02:49:18;;;;;;;11.13;5.15;;;28.10;88.90;;;;;;5044969;28;20029;-46
2021/09/13 02:51:51;;;;;;;11.27;4.38;;;28.10;88.80;;;;;;5045126;28;20033;-47
2021/09/13 02:54:17;;;;;;;;;;;28.10;88.60;;;;;;5045050;28;20021;-50
2021/09/13 02:56:46;;;;;;;16.58;4.60;;;28.10;88.70;;;;;;5045036;28;20227;-50
2021/09/13 02:59:12;;;;;;;15.82;4.40;;;28.10;88.70;;;;;;5044694;28;20292;-50
2021/09/13 03:01:39;;;;;;;15.18;4.45;;;28.10;88.80;;;;;;5044929;28;20029;-49
2021/09/13 03:04:05;;;;;;;14.35;4.20;;;28.10;88.70;;;;;;5044662;28;20063;-51
2021/09/13 03:06:32;;;;;;;11.23;3.85;;;28.10;88.70;;;;;;5044373;28;20030;-52
2021/09/13 03:08:59;;;;;;;13.45;4.05;;;28.10;88.80;;;;;;5044413;28;20248;-48
2021/09/13 03:11:25;;;;;;;13.05;4.63;;;28.10;88.60;;;;;;5044630;28;20240;-55
2021/09/13 03:13:52;;;;;;;10.80;4.97;;;28.10;88.80;;;;;;5044429;28;20215;-48
2021/09/13 03:16:18;;;;;;;12.40;5.40;;;28.10;88.90;;;;;;5044668;28;20026;-46
2021/09/13 03:18:45;;;;;;;14.98;6.00;;;28.10;89.00;;;;;;5044367;28;20030;-46
2021/09/13 03:21:11;;;;;;;16.02;6.25;;;28.10;89.20;;;;;;5044524;28;20204;-46
2021/09/13 03:23:38;;;;;;;23.23;7.80;;;28.10;89.20;;;;;;5044487;28;20211;-50
2021/09/13 03:26:05;;;;;;;18.52;8.30;;;28.10;89.20;;;;;;5044636;28;20084;-51
2021/09/13 03:28:34;;;;;;;19.13;8.52;;;28.10;89.30;;;;;;5044201;28;20335;-54
2021/09/13 03:31:01;;;;;;;23.80;9.27;;;28.10;89.40;;;;;;5043137;28;20044;-47
2021/09/13 03:33:29;;;;;;;20.52;8.80;;;28.00;89.60;;;;;;5044077;28;20297;-48
2021/09/13 03:35:56;;;;;;;18.60;7.75;;;28.10;90.00;;;;;;5044123;28;20033;-49
2021/09/13 03:38:22;;;;;;;18.33;7.57;;;28.10;89.80;;;;;;5044239;28;20022;-47
2021/09/13 03:40:49;;;;;;;13.30;6.25;;;28.00;89.50;;;;;;5044255;28;20030;-45
2021/09/13 03:43:16;;;;;;;16.80;6.10;;;28.00;89.50;;;;;;5043957;28;20021;-45
2021/09/13 03:45:42;;;;;;;15.05;5.00;;;28.00;89.60;;;;;;5044077;28;20027;-52
2021/09/13 03:48:09;;;;;;;14.13;5.35;;;28.10;89.70;;;;;;5043309;28;20017;-51
2021/09/13 03:50:35;;;;;;;17.77;4.90;;;28.10;90.00;;;;;;5044031;28;20260;-45
2021/09/13 03:53:03;;;;;;;11.55;4.05;;;28.10;90.00;;;;;;5043906;28;20206;-53
2021/09/13 03:55:30;;;;;;;17.58;4.90;;;28.00;90.10;;;;;;5043933;28;20018;-48
2021/09/13 03:57:57;;;;;;;14.85;4.43;;;28.00;90.20;;;;;;5043910;28;20028;-46
2021/09/13 04:00:23;;;;;;;12.32;3.92;;;28.00;90.20;;;;;;5043861;28;20328;-47
2021/09/13 04:02:50;;;;;;;15.57;4.10;;;28.00;90.20;;;;;;5043998;28;20209;-51
2021/09/13 04:05:20;;;;;;;13.88;4.07;;;28.00;90.30;;;;;;5043840;28;20021;-47
2021/09/13 04:10:26;;;;;;;11.38;3.70;;;28.00;90.40;;;;;;5043725;28;20037;-49
2021/09/13 04:12:52;;;;;;;10.63;3.97;;;28.00;90.50;;;;;;5043628;28;20326;-45
2021/09/13 04:15:19;;;;;;;10.82;3.50;;;28.00;90.50;;;;;;5043726;28;20021;-45
2021/09/13 04:17:46;;;;;;;11.05;3.65;;;27.90;90.50;;;;;;5043500;28;20052;-49
2021/09/13 04:20:13;;;;;;;13.35;3.40;;;27.90;90.50;;;;;;5042590;28;20025;-46
2021/09/13 04:22:39;;;;;;;9.98;3.60;;;27.90;90.60;;;;;;5044088;28;20028;-45
2021/09/13 04:25:06;;;;;;;14.48;3.45;;;27.90;90.70;;;;;;5043578;28;20128;-52
2021/09/13 04:27:34;;;;;;;13.93;3.38;;;27.90;90.80;;;;;;5044240;28;20033;-50
2021/09/13 04:30:01;;;;;;;8.43;3.72;;;27.90;90.80;;;;;;5043629;28;20021;-45
2021/09/13 04:32:27;;;;;;;13.10;3.17;;;27.80;90.90;;;;;;5043839;28;20314;-49
2021/09/13 04:34:54;;;;;;;10.48;3.13;;;27.80;91.00;;;;;;5043668;28;20032;-50
2021/09/13 04:37:21;;;;;;;14.18;3.65;;;27.80;91.10;;;;;;5044012;28;20068;-49
2021/09/13 04:39:47;;;;;;;16.95;6.10;;;27.80;91.20;;;;;;5043645;28;20018;-45
2021/09/13 04:42:14;;;;;;;18.52;7.35;;;27.80;91.30;;;;;;5042476;28;20310;-45
2021/09/13 04:44:40;;;;;;;17.77;9.40;;;27.80;91.40;;;;;;5043477;28;20017;-45
2021/09/13 04:47:07;;;;;;;21.30;9.13;;;27.80;91.30;;;;;;5043661;28;20033;-47
2021/09/13 04:49:34;;;;;;;18.52;8.18;;;27.80;91.40;;;;;;5043306;28;20191;-50
2021/09/13 04:52:00;;;;;;;17.20;6.78;;;27.70;91.50;;;;;;5034292;28;20026;-50
2021/09/13 04:54:27;;;;;;;21.00;7.53;;;27.70;91.40;;;;;;5024112;28;20331;-46
2021/09/13 04:56:53;;;;;;;15.18;6.47;;;27.70;91.50;;;;;;5024252;28;20037;-54
2021/09/13 04:59:20;;;;;;;16.48;5.65;;;27.70;91.40;;;;;;5025618;28;20080;-49
2021/09/13 05:01:46;;;;;;;21.45;5.85;;;27.70;91.50;;;;;;5028101;28;20022;-48
2021/09/13 05:04:13;;;;;;;16.80;5.53;;;27.70;91.50;;;;;;5027617;28;20072;-47
2021/09/13 05:06:40;;;;;;;14.25;5.78;;;27.70;91.40;;;;;;5027968;28;20088;-47
2021/09/13 05:09:06;;;;;;;18.20;5.05;;;27.70;91.40;;;;;;5027533;28;20056;-48
2021/09/13 05:11:33;;;;;;;15.88;4.30;;;27.70;91.40;;;;;;5027670;28;20202;-48
2021/09/13 05:14:00;;;;;;;11.98;4.10;;;27.60;91.20;;;;;;5027600;28;20033;-48
2021/09/13 05:16:26;;;;;;;15.82;4.38;;;27.60;91.20;;;;;;5027790;28;20306;-48
2021/09/13 05:18:53;;;;;;;13.15;3.65;;;27.60;91.20;;;;;;5027389;28;20056;-49
2021/09/13 05:21:20;;;;;;;9.73;3.67;;;27.60;91.10;;;;;;5027688;28;20302;-45
2021/09/13 05:23:46;;;;;;;11.48;3.58;;;27.50;91.00;;;;;;5027308;28;20022;-51
2021/09/13 05:26:13;;;;;;;12.27;4.22;;;27.60;90.90;;;;;;5027443;28;20297;-50
2021/09/13 05:28:39;;;;;;;12.88;3.03;;;27.50;90.90;;;;;;5027437;28;20068;-47
2021/09/13 05:31:06;;;;;;;9.63;3.05;;;27.50;90.80;;;;;;5027631;28;20057;-50
2021/09/13 05:33:32;;;;;;;12.20;3.30;;;27.50;90.80;;;;;;5027037;28;20028;-51
2021/09/13 05:35:59;;;;;;;14.32;3.42;;;27.50;90.90;;;;;;5027125;28;20018;-49
2021/09/13 05:38:26;;;;;;;13.48;3.13;;;27.50;90.90;;;;;;5027133;28;20025;-48
2021/09/13 05:40:52;;;;;;;11.65;3.67;;;27.50;90.90;;;;;;5026954;28;20025;-49
2021/09/13 05:43:19;;;;;;;13.77;3.22;;;27.40;90.80;;;;;;5027079;28;20052;-49
2021/09/13 05:45:45;;;;;;;10.93;3.10;;;27.40;90.80;;;;;;5026995;28;20032;-51
2021/09/13 05:48:13;;;;;;;11.85;3.42;;;27.40;90.60;;;;;;5026906;28;20022;-52
2021/09/13 05:50:41;;;;;;;10.23;3.70;;;27.40;90.60;;;;;;5027091;28;20326;-50
2021/09/13 05:53:08;;;;;;;9.90;3.67;;;27.40;90.60;;;;;;5026814;28;20104;-49
2021/09/13 05:55:34;;;;;;;13.85;3.20;;;27.40;90.70;;;;;;5026820;28;20198;-46
2021/09/13 05:58:01;;;;;;;16.25;3.25;;;27.30;90.70;;;;;;5026784;28;20026;-49
2021/09/13 06:00:28;;;;;;;10.52;3.20;;;27.30;90.80;;;;;;5026655;28;20025;-47
2021/09/13 06:02:54;;;;;;;12.65;3.17;;;27.30;90.60;;;;;;5026942;28;20076;-47
2021/09/13 06:05:21;;;;;;;13.02;3.53;;;27.30;90.60;;;;;;5026565;28;20072;-45
2021/09/13 06:07:47;;;;;;;9.75;3.17;;;27.30;90.60;;;;;;5026695;28;20061;-53
2021/09/13 06:10:14;;;;;;;10.30;3.22;;;27.30;90.60;;;;;;5025867;28;20310;-50
2021/09/13 06:12:40;;;;;;;10.43;3.25;;;27.30;90.80;;;;;;5026596;28;20037;-56
2021/09/13 06:15:08;;;;;;;9.00;3.13;;;27.30;90.70;;;;;;5026463;28;20172;-49
2021/09/13 06:17:35;;;;;;;11.63;2.80;;;27.30;90.70;;;;;;5026863;28;20089;-49
2021/09/13 06:20:04;;;;;;;11.32;3.28;;;27.20;90.70;;;;;;5026238;28;20022;-47
2021/09/13 06:22:31;;;;;;;12.30;3.40;;;27.20;90.60;;;;;;5026234;28;20110;-49
2021/09/13 06:24:58;;;;;;;12.27;3.17;;;27.20;90.50;;;;;;5026235;28;20022;-50
2021/09/13 06:27:25;;;;;;;13.27;3.00;;;27.20;90.60;;;;;;5026460;28;20198;-47
2021/09/13 06:29:51;;;;;;;13.23;3.38;;;27.20;90.70;;;;;;5026177;28;20056;-46
2021/09/13 06:32:18;;;;;;;11.13;2.83;;;27.20;90.60;;;;;;5026497;28;20214;-47
2021/09/13 06:34:44;;;;;;;12.82;3.10;;;27.20;90.60;;;;;;5025991;28;20018;-45
2021/09/13 06:37:11;;;;;;;9.77;3.10;;;27.20;90.60;;;;;;5026381;28;20088;-52
2021/09/13 06:39:38;;;;;;;10.15;3.28;;;27.20;90.50;;;;;;5026068;28;20028;-50
2021/09/13 06:42:05;;;;;;;10.55;3.33;;;27.10;90.30;;;;;;5026201;28;20038;-47
2021/09/13 06:44:31;;;;;;;15.95;3.03;;;27.10;90.20;;;;;;5026184;28;20089;-47
2021/09/13 06:47:06;;;;;;;11.80;3.25;;;27.10;90.20;;;;;;5026149;28;20022;-46
2021/09/13 06:49:34;;;;;;;12.32;4.28;;;27.10;90.20;;;;;;5025678;28;20205;-48
2021/09/13 06:52:03;;;;;;;10.75;4.68;;;27.10;90.30;;;;;;5026204;28;20041;-46
2021/09/13 06:54:29;;;;;;;12.98;5.10;;;27.10;90.40;;;;;;5025701;28;20037;-47
2021/09/13 06:56:58;;;;;;;19.92;4.97;;;27.10;90.40;;;;;;5025990;28;20032;-48
2021/09/13 06:59:25;;;;;;;14.10;5.03;;;27.10;90.50;;;;;;5024578;28;20057;-46
2021/09/13 07:01:52;;;;;;;16.08;4.63;;;27.00;90.60;;;;;;5025925;28;20026;-52
2021/09/13 07:04:20;;;;;;;14.85;4.40;;;27.10;90.60;;;;;;5025449;28;20032;-47
2021/09/13 07:06:47;;;;;;;12.20;4.28;;;27.00;90.70;;;;;;5025120;28;20026;-50
2021/09/13 07:09:13;;;;;;;13.23;4.10;;;27.00;90.70;;;;;;5025418;28;20364;-49
2021/09/13 07:11:40;;;;;;;13.02;3.53;;;27.00;90.80;;;;;;5025574;28;20034;-50
2021/09/13 07:14:06;;;;;;;13.57;3.40;;;26.90;90.80;;;;;;5025336;28;20049;-48
2021/09/13 07:16:33;;;;;;;14.00;3.85;;;27.00;90.90;;;;;;5025622;28;20294;-48
2021/09/13 07:19:01;;;;;;;8.60;3.22;;;26.90;90.80;;;;;;5025427;28;20024;-46
2021/09/13 07:21:28;;;;;;;13.02;3.08;;;26.90;90.90;;;;;;5025309;28;20030;-50
2021/09/13 07:23:55;;;;;;;9.77;3.50;;;26.90;90.90;;;;;;5025255;28;20267;-49
2021/09/13 07:26:22;;;;;;;10.95;5.07;;;26.90;90.90;;;;;;5025156;28;20033;-48
2021/09/13 07:28:49;;;;;;;11.23;5.03;;;26.90;91.00;;;;;;5025143;28;20071;-47
2021/09/13 07:31:15;;;;;;;14.63;4.70;;;26.90;91.10;;;;;;5025220;28;20029;-46
2021/09/13 07:33:42;;;;;;;11.18;4.32;;;26.90;91.10;;;;;;5024824;28;20089;-47
2021/09/13 07:36:09;;;;;;;8.48;4.00;;;26.90;91.10;;;;;;5025276;28;20072;-46
2021/09/13 07:38:35;;;;;;;13.25;3.78;;;26.80;91.10;;;;;;5024986;28;20021;-46
2021/09/13 07:41:02;;;;;;;15.63;4.07;;;26.90;91.20;;;;;;5024900;28;20214;-45
2021/09/13 07:43:28;;;;;;;12.02;3.60;;;26.80;91.30;;;;;;5024943;28;20022;-54
2021/09/13 07:45:55;;;;;;;16.05;3.63;;;26.80;91.30;;;;;;5024971;28;20026;-49
2021/09/13 07:48:22;;;;;;;13.27;3.80;;;26.80;91.30;;;;;;5024773;28;20036;-47
2021/09/13 07:50:49;;;;;;;14.30;3.75;;;26.80;91.40;;;;;;5024799;28;20041;-49
2021/09/13 07:53:16;;;;;;;13.98;3.60;;;26.80;91.40;;;;;;5024716;28;20349;-48
2021/09/13 07:55:42;;;;;;;11.02;3.60;;;26.70;91.50;;;;;;5024581;28;20075;-48
2021/09/13 07:58:09;;;;;;;11.32;3.45;;;26.70;91.50;;;;;;5024765;28;20022;-49
2021/09/13 08:00:35;;;;;;;11.93;3.50;;;26.70;91.60;;;;;;5024629;28;20022;-54
2021/09/13 08:03:02;;;;;;;10.40;3.17;;;26.80;91.60;;;;;;5024493;28;20028;-46
2021/09/13 08:05:29;;;;;;;14.80;4.30;;;26.80;91.60;;;;;;5024585;28;20026;-48
2021/09/13 08:07:55;;;;;;;16.42;3.85;;;26.80;91.60;;;;;;5024550;28;20282;-47
2021/09/13 08:10:22;;;;;;;11.65;3.53;;;26.80;91.60;;;;;;5024427;28;20093;-48
2021/09/13 08:12:48;;;;;;;13.90;3.60;;;26.70;91.50;;;;;;5024476;28;20053;-47
2021/09/13 08:15:16;;;;;;;9.82;3.95;;;26.70;91.50;;;;;;5024567;28;20017;-50
2021/09/13 08:17:42;;;;;;;16.80;5.80;;;26.70;91.50;;;;;;5024859;28;20056;-48
2021/09/13 08:20:09;;;;;;;23.30;11.57;;;26.70;91.50;;;;;;5024452;28;20088;-45
2021/09/13 08:22:35;;;;;;;30.33;16.83;;;26.70;91.50;;;;;;5024983;28;20041;-46
2021/09/13 08:25:02;;;;;;;27.98;15.95;;;26.60;91.60;;;;;;5024383;28;20022;-48
2021/09/13 08:27:29;;;;;;;23.13;14.02;;;26.60;91.60;;;;;;5024848;28;20207;-50
2021/09/13 08:29:55;;;;;;;24.13;12.02;;;26.60;91.60;;;;;;5024446;28;20084;-45
2021/09/13 08:32:22;;;;;;;22.38;9.50;;;26.60;91.70;;;;;;5024798;28;20026;-48
2021/09/13 08:34:51;;;;;;;20.48;8.30;;;26.60;91.60;;;;;;5026633;28;20093;-49
2021/09/13 08:37:17;;;;;;;21.73;6.93;;;26.60;91.60;;;;;;5028614;28;20191;-48
2021/09/13 08:39:44;;;;;;;17.00;6.15;;;26.60;91.50;;;;;;5028228;28;20018;-46
2021/09/13 08:42:11;;;;;;;12.75;5.78;;;26.60;91.40;;;;;;5028505;28;20021;-46
2021/09/13 08:44:40;;;;;;;13.65;5.25;;;26.60;91.40;;;;;;5028219;28;20025;-48
2021/09/13 08:47:17;;;;;;;15.60;4.38;;;26.60;91.30;;;;;;5028413;28;20245;-48
2021/09/13 08:49:46;;;;;;;10.00;4.07;;;26.50;91.30;;;;;;5028048;28;20028;-46
2021/09/13 08:52:13;;;;;;;11.23;4.28;;;26.50;91.30;;;;;;5027790;28;20037;-48
2021/09/13 08:54:40;;;;;;;12.30;3.95;;;26.50;91.20;;;;;;5027852;28;20251;-45
2021/09/13 08:57:08;;;;;;;16.88;3.65;;;26.50;91.20;;;;;;5028250;28;20026;-47
2021/09/13 08:59:37;;;;;;;8.55;3.20;;;26.50;91.20;;;;;;5027908;28;20026;-45
2021/09/13 09:02:05;;;;;;;10.30;3.55;;;26.50;91.10;;;;;;5028047;28;20234;-48
2021/09/13 09:04:32;;;;;;;14.27;3.05;;;26.40;91.10;;;;;;5027826;28;20076;-46
2021/09/13 09:07:10;;;;;;;11.85;3.33;;;26.40;91.10;;;;;;5027715;28;20029;-46
2021/09/13 09:09:36;;;;;;;11.63;3.00;;;26.40;91.10;;;;;;5027667;28;20030;-46
2021/09/13 09:12:10;;;;;;;8.45;3.20;;;26.40;91.10;;;;;;5027986;28;20092;-46
2021/09/13 09:14:46;;;;;;;10.20;3.00;;;26.40;91.00;;;;;;5027388;28;20337;-46
2021/09/13 09:17:23;;;;;;;14.88;2.95;;;26.40;91.00;;;;;;5027407;28;20222;-46
2021/09/13 09:20:07;;;;;;;8.45;2.88;;;26.40;90.90;;;;;;5027339;28;20018;-49
2021/09/13 09:22:40;;;;;;;7.70;3.08;;;26.40;91.00;;;;;;5027925;28;20077;-48
2021/09/13 09:25:08;;;;;;;10.32;3.28;;;26.40;91.00;;;;;;5027266;28;20093;-46
2021/09/13 09:27:55;;;;;;;8.55;2.80;;;26.30;91.00;;;;;;5027819;28;20041;-47
2021/09/13 09:30:31;;;;;;;9.90;2.80;;;26.30;91.00;;;;;;5027170;28;20020;-51
2021/09/13 09:33:10;;;;;;;8.32;3.00;;;26.30;90.90;;;;;;5027228;28;20030;-49
2021/09/13 09:35:45;;;;;;;17.15;3.35;;;26.30;91.00;;;;;;5026979;28;20088;-47
2021/09/13 09:38:30;;;;;;;11.40;3.10;;;26.30;90.80;;;;;;5027134;28;20017;-49
2021/09/13 09:41:23;;;;;;;9.80;2.70;;;26.30;90.80;;;;;;5026937;28;20048;-47
2021/09/13 09:44:00;;;;;;;12.65;2.90;;;26.30;90.90;;;;;;5024453;28;20089;-47
2021/09/13 09:46:39;;;;;;;12.07;2.90;;;26.30;90.90;;;;;;5025781;28;20033;-47
2021/09/13 09:49:08;;;;;;;11.10;2.97;;;26.30;90.80;;;;;;5027190;28;20033;-46
2021/09/13 09:51:38;;;;;;;12.35;3.08;;;26.30;90.80;;;;;;5026957;28;20021;-48
2021/09/13 09:54:16;;;;;;;9.60;3.00;;;26.30;90.90;;;;;;5026743;28;20061;-46
2021/09/13 09:56:45;;;;;;;9.73;3.00;;;26.20;90.90;;;;;;5026873;28;20033;-49
2021/09/13 09:59:13;;;;;;;17.98;3.40;;;26.20;90.90;;;;;;5026693;28;20017;-48
2021/09/13 10:01:47;;;;;;;9.85;3.17;;;26.20;91.00;;;;;;5026966;28;20267;-50
2021/09/13 10:04:18;;;;;;;14.13;3.47;;;26.20;91.20;;;;;;5026437;28;20049;-51
2021/09/13 10:06:47;;;;;;;13.38;4.03;;;26.30;91.00;;;;;;5026667;28;20060;-46
2021/09/13 10:09:15;;;;;;;17.98;3.67;;;26.20;91.00;;;;;;5026390;28;20030;-49
2021/09/13 10:11:43;;;;;;;9.43;2.92;;;26.30;91.10;;;;;;5026589;28;20080;-51
2021/09/13 10:14:12;;;;;;;12.02;3.42;;;26.20;91.10;;;;;;5026262;28;20030;-48
2021/09/13 10:16:41;;;;;;;12.13;3.83;;;26.20;91.00;;;;;;5026360;28;20026;-49
2021/09/13 10:19:08;;;;;;;10.52;4.35;;;26.20;90.90;;;;;;5026384;28;20010;-52
2021/09/13 10:21:35;;;;;;;10.18;3.40;;;26.20;90.90;;;;;;5026453;28;20030;-50
2021/09/13 10:24:06;;;;;;;11.85;3.30;;;26.20;90.80;;;;;;5026350;28;20239;-52
2021/09/13 10:26:33;;;;;;;13.07;3.50;;;26.20;90.80;;;;;;5026390;28;20037;-49
2021/09/13 10:29:02;;;;;;;9.68;3.67;;;26.20;90.80;;;;;;5026168;28;20022;-48
2021/09/13 10:31:47;;;;;;;11.18;3.85;;;26.20;90.80;;;;;;5026270;28;20314;-49
2021/09/13 10:34:22;;;;;;;10.10;3.83;;;26.20;90.80;;;;;;5026078;28;20052;-53
2021/09/13 10:37:08;;;;;;;17.88;4.43;;;26.20;90.80;;;;;;5026144;28;20030;-48
2021/09/13 10:39:52;;;;;;;16.15;5.53;;;26.20;90.70;;;;;;5026018;28;20021;-51
2021/09/13 10:42:32;;;;;;;13.23;5.00;;;26.10;90.60;;;;;;5026235;28;20025;-51
2021/09/13 10:45:06;;;;;;;14.32;5.13;;;26.10;90.60;;;;;;5026141;28;20045;-46
2021/09/13 10:47:33;;;;;;;14.13;4.90;;;26.10;90.70;;;;;;5026122;28;20030;-48
2021/09/13 10:50:16;;;;;;;13.38;4.60;;;26.10;90.80;;;;;;5025667;28;20041;-46
2021/09/13 10:52:43;;;;;;;11.23;4.40;;;26.10;90.70;;;;;;5026043;28;20033;-49
2021/09/13 10:55:11;;;;;;;11.40;4.10;;;26.10;90.80;;;;;;5025617;28;20072;-51
2021/09/13 10:58:02;;;;;;;11.98;4.43;;;26.10;90.80;;;;;;5025657;28;20050;-47
2021/09/13 11:00:54;;;;;;;14.25;4.65;;;26.10;90.80;;;;;;5025448;28;20024;-53
2021/09/13 11:03:28;;;;;;;14.52;5.50;;;26.00;90.80;;;;;;5023092;28;20037;-48
2021/09/13 11:06:17;;;;;;;16.27;5.70;;;26.00;90.80;;;;;;5025462;28;20079;-51
2021/09/13 11:08:44;;;;;;;14.63;5.82;;;26.00;91.10;;;;;;5025264;28;20282;-49
2021/09/13 11:11:14;;;;;;;14.07;6.20;;;26.00;90.80;;;;;;5025513;28;20057;-47
2021/09/13 11:13:42;;;;;;;14.27;5.10;;;26.00;90.90;;;;;;5025159;28;20018;-48
2021/09/13 11:16:09;;;;;;;14.00;5.68;;;26.00;91.00;;;;;;5025437;28;20053;-48
2021/09/13 11:18:43;;;;;;;11.80;5.43;;;26.10;91.00;;;;;;5025269;28;20025;-51
2021/09/13 11:21:31;;;;;;;9.68;4.50;;;26.10;90.90;;;;;;5025063;28;20400;-48
2021/09/13 11:23:59;;;;;;;11.45;4.57;;;26.20;90.80;;;;;;5025110;28;20022;-51
2021/09/13 11:26:42;;;;;;;9.55;4.40;;;26.20;90.80;;;;;;5025377;28;20034;-49
2021/09/13 11:29:26;;;;;;;15.27;4.85;;;26.30;90.70;;;;;;5025034;28;20022;-49
2021/09/13 11:31:58;;;;;;;11.88;3.97;;;26.30;90.50;;;;;;5025320;28;20026;-51
2021/09/13 11:34:29;;;;;;;;;;;26.30;90.50;;;;;;5025298;28;20175;-47
2021/09/13 11:36:59;;;;;;;15.77;4.25;;;26.40;90.60;;;;;;5025348;28;19917;-51
2021/09/13 11:39:29;;;;;;;11.55;3.65;;;26.40;90.40;;;;;;5024785;28;20048;-55
2021/09/13 11:42:01;;;;;;;11.38;3.60;;;26.40;90.50;;;;;;5024960;28;20201;-50
2021/09/13 11:44:29;;;;;;;10.60;3.60;;;26.40;90.30;;;;;;5024680;28;20045;-49
2021/09/13 11:47:05;;;;;;;9.60;3.30;;;26.50;90.40;;;;;;5024918;28;20092;-50
2021/09/13 11:49:37;;;;;;;11.70;3.20;;;26.60;90.10;;;;;;5024588;28;20032;-54
2021/09/13 11:52:04;;;;;;;15.15;3.58;;;26.60;90.00;;;;;;5025074;28;20086;-51
2021/09/13 11:54:32;;;;;;;11.93;3.72;;;26.60;89.80;;;;;;5024524;28;20028;-55
2021/09/13 11:57:01;;;;;;;11.57;3.60;;;26.60;89.90;;;;;;5024824;28;20053;-52
2021/09/13 11:59:28;;;;;;;15.02;3.50;;;26.70;90.10;;;;;;5024588;28;20174;-49
2021/09/13 12:02:01;;;;;;;9.68;3.20;;;26.70;90.00;;;;;;5024300;28;20033;-49
2021/09/13 12:04:29;;;;;;;6.25;3.10;;;26.60;89.80;;;;;;5024592;28;20018;-49
2021/09/13 12:07:10;;;;;;;12.45;3.63;;;26.70;90.10;;;;;;5024274;28;20361;-48
2021/09/13 12:09:43;;;;;;;11.43;3.47;;;26.70;90.10;;;;;;5023650;28;20037;-48
2021/09/13 12:12:21;;;;;;;7.90;3.05;;;26.70;90.10;;;;;;5024909;28;20030;-51
2021/09/13 12:14:48;;;;;;;7.72;3.25;;;26.70;90.10;;;;;;5024287;28;20088;-52
2021/09/13 12:17:20;;;;;;;10.95;3.13;;;26.70;90.10;;;;;;5024311;28;20026;-52
2021/09/13 12:20:10;;;;;;;6.75;2.67;;;26.70;90.00;;;;;;5024344;28;20018;-52
2021/09/13 12:22:38;;;;;;;8.77;2.88;;;26.70;90.10;;;;;;5024319;28;20034;-54
2021/09/13 12:25:17;;;;;;;7.55;3.15;;;26.70;89.60;;;;;;5024210;28;20307;-50
2021/09/13 12:27:48;;;;;;;10.00;3.05;;;26.70;89.80;;;;;;5024827;28;20182;-50
2021/09/13 12:30:30;;;;;;;10.52;3.05;;;26.80;90.00;;;;;;5024216;28;20018;-45
2021/09/13 12:32:59;;;;;;;12.75;3.85;;;26.80;90.00;;;;;;5024065;28;20084;-47
2021/09/13 12:35:43;;;;;;;12.82;3.47;;;26.80;90.10;;;;;;5036367;28;20063;-48
2021/09/13 12:38:15;;;;;;;7.90;3.42;;;26.80;90.10;;;;;;5043830;28;20050;-53
2021/09/13 12:40:57;;;;;;;8.18;3.00;;;26.80;89.90;;;;;;5043504;28;20201;-48
2021/09/13 12:43:25;;;;;;;5.72;3.17;;;26.90;90.10;;;;;;5043688;28;20247;-51
2021/09/13 12:46:17;;;;;;;11.43;2.95;;;26.90;90.10;;;;;;5043401;28;20262;-52
2021/09/13 12:48:46;;;;;;;8.05;3.45;;;26.90;90.20;;;;;;5043299;28;20036;-48
2021/09/13 12:51:15;;;;;;;6.22;3.20;;;26.90;90.20;;;;;;5041021;28;20075;-46